sensor_id;sensor_type;location;lat;lon;timestamp;pressure;altitude;pressure_sealevel;temperature;humidity
54144;BME280;40050;47.324;18.792;2023-08-30T00:01:27;992.29;;;20.07;70.50
54144;BME280;40050;47.324;18.792;2023-08-30T00:03:28;992.31;;;20.22;70.67
54144;BME280;40050;47.324;18.792;2023-08-30T00:05:29;992.30;;;20.19;70.73
54144;BME280;40050;47.324;18.792;2023-08-30T00:07:30;992.27;;;20.12;70.78
54144;BME280;40050;47.324;18.792;2023-08-30T00:09:31;992.24;;;20.11;70.83
54144;BME280;40050;47.324;18.792;2023-08-30T00:11:32;992.20;;;20.09;70.82
54144;BME280;40050;47.324;18.792;2023-08-30T00:13:32;992.21;;;20.05;70.92
54144;BME280;40050;47.324;18.792;2023-08-30T00:15:33;992.28;;;20.01;71.08
54144;BME280;40050;47.324;18.792;2023-08-30T00:17:34;992.26;;;19.96;71.24
54144;BME280;40050;47.324;18.792;2023-08-30T00:19:35;992.34;;;19.97;71.24
54144;BME280;40050;47.324;18.792;2023-08-30T00:21:36;992.30;;;19.89;71.54
54144;BME280;40050;47.324;18.792;2023-08-30T00:23:37;992.13;;;19.78;71.84
54144;BME280;40050;47.324;18.792;2023-08-30T00:25:38;992.33;;;19.92;71.97
54144;BME280;40050;47.324;18.792;2023-08-30T00:27:39;992.26;;;19.91;72.18
54144;BME280;40050;47.324;18.792;2023-08-30T00:29:40;992.27;;;19.92;72.32
54144;BME280;40050;47.324;18.792;2023-08-30T00:31:41;992.28;;;19.92;72.44
54144;BME280;40050;47.324;18.792;2023-08-30T00:33:42;992.33;;;19.92;72.49
54144;BME280;40050;47.324;18.792;2023-08-30T00:35:43;992.38;;;19.93;72.61
54144;BME280;40050;47.324;18.792;2023-08-30T00:37:51;992.38;;;19.88;72.75
54144;BME280;40050;47.324;18.792;2023-08-30T00:39:55;992.49;;;19.93;72.86
54144;BME280;40050;47.324;18.792;2023-08-30T00:41:56;992.50;;;19.91;72.94
54144;BME280;40050;47.324;18.792;2023-08-30T00:43:57;992.51;;;19.95;73.09
54144;BME280;40050;47.324;18.792;2023-08-30T00:45:58;992.42;;;19.95;72.88
54144;BME280;40050;47.324;18.792;2023-08-30T00:47:59;992.39;;;19.95;73.05
54144;BME280;40050;47.324;18.792;2023-08-30T00:50:00;992.37;;;19.97;73.33
54144;BME280;40050;47.324;18.792;2023-08-30T00:52:02;992.42;;;20.02;73.37
54144;BME280;40050;47.324;18.792;2023-08-30T00:54:04;992.43;;;20.01;73.30
54144;BME280;40050;47.324;18.792;2023-08-30T00:56:05;992.44;;;20.03;73.50
54144;BME280;40050;47.324;18.792;2023-08-30T00:58:07;992.48;;;20.07;73.33
54144;BME280;40050;47.324;18.792;2023-08-30T01:00:09;992.42;;;20.07;73.66
54144;BME280;40050;47.324;18.792;2023-08-30T01:02:10;992.42;;;20.10;73.57
54144;BME280;40050;47.324;18.792;2023-08-30T01:04:11;992.43;;;20.11;73.35
54144;BME280;40050;47.324;18.792;2023-08-30T01:06:12;992.44;;;20.12;73.34
54144;BME280;40050;47.324;18.792;2023-08-30T01:08:12;992.43;;;20.12;73.39
54144;BME280;40050;47.324;18.792;2023-08-30T01:10:14;992.37;;;20.15;73.26
54144;BME280;40050;47.324;18.792;2023-08-30T01:12:24;992.31;;;20.14;73.19
54144;BME280;40050;47.324;18.792;2023-08-30T01:14:52;992.35;;;20.18;73.38
54144;BME280;40050;47.324;18.792;2023-08-30T01:16:43;992.33;;;20.15;73.54
54144;BME280;40050;47.324;18.792;2023-08-30T01:18:44;992.36;;;20.16;73.35
54144;BME280;40050;47.324;18.792;2023-08-30T01:20:45;992.39;;;20.18;73.51
54144;BME280;40050;47.324;18.792;2023-08-30T01:23:00;992.33;;;20.23;73.38
54144;BME280;40050;47.324;18.792;2023-08-30T01:25:16;992.35;;;20.29;73.06
54144;BME280;40050;47.324;18.792;2023-08-30T01:27:18;992.33;;;20.26;73.19
54144;BME280;40050;47.324;18.792;2023-08-30T01:29:20;992.33;;;20.26;73.08
54144;BME280;40050;47.324;18.792;2023-08-30T01:31:21;992.24;;;20.22;73.13
54144;BME280;40050;47.324;18.792;2023-08-30T01:33:24;992.26;;;20.28;72.86
54144;BME280;40050;47.324;18.792;2023-08-30T01:35:25;992.21;;;20.24;72.87
54144;BME280;40050;47.324;18.792;2023-08-30T01:37:26;992.26;;;20.26;72.67
54144;BME280;40050;47.324;18.792;2023-08-30T01:39:28;992.29;;;20.23;72.74
54144;BME280;40050;47.324;18.792;2023-08-30T01:41:30;992.31;;;20.25;72.58
54144;BME280;40050;47.324;18.792;2023-08-30T01:43:31;992.26;;;20.22;72.89
54144;BME280;40050;47.324;18.792;2023-08-30T01:45:34;992.29;;;20.22;72.97
54144;BME280;40050;47.324;18.792;2023-08-30T01:47:35;992.33;;;20.23;73.09
54144;BME280;40050;47.324;18.792;2023-08-30T01:49:37;992.35;;;20.23;72.73
54144;BME280;40050;47.324;18.792;2023-08-30T01:51:38;992.42;;;20.27;72.27
54144;BME280;40050;47.324;18.792;2023-08-30T01:53:40;992.35;;;20.22;72.47
54144;BME280;40050;47.324;18.792;2023-08-30T01:55:41;992.34;;;20.25;72.17
54144;BME280;40050;47.324;18.792;2023-08-30T01:57:43;992.26;;;20.17;72.29
54144;BME280;40050;47.324;18.792;2023-08-30T01:59:43;992.26;;;20.13;72.59
54144;BME280;40050;47.324;18.792;2023-08-30T02:01:44;992.26;;;20.12;72.63
54144;BME280;40050;47.324;18.792;2023-08-30T02:03:45;992.28;;;20.08;72.77
54144;BME280;40050;47.324;18.792;2023-08-30T02:05:57;992.34;;;20.08;73.15
54144;BME280;40050;47.324;18.792;2023-08-30T02:08:03;992.32;;;20.04;73.36
54144;BME280;40050;47.324;18.792;2023-08-30T02:10:06;992.42;;;20.11;73.19
54144;BME280;40050;47.324;18.792;2023-08-30T02:12:18;992.51;;;20.13;72.85
54144;BME280;40050;47.324;18.792;2023-08-30T02:14:21;992.52;;;20.10;72.91
54144;BME280;40050;47.324;18.792;2023-08-30T02:16:23;992.51;;;20.10;72.70
54144;BME280;40050;47.324;18.792;2023-08-30T02:18:24;992.48;;;20.02;72.54
54144;BME280;40050;47.324;18.792;2023-08-30T02:20:26;992.52;;;19.96;72.94
54144;BME280;40050;47.324;18.792;2023-08-30T02:22:27;992.43;;;19.97;73.16
54144;BME280;40050;47.324;18.792;2023-08-30T02:24:27;992.39;;;19.97;73.43
54144;BME280;40050;47.324;18.792;2023-08-30T02:26:28;992.38;;;20.01;73.30
54144;BME280;40050;47.324;18.792;2023-08-30T02:28:29;992.43;;;20.03;72.99
54144;BME280;40050;47.324;18.792;2023-08-30T02:30:30;992.42;;;19.97;72.96
54144;BME280;40050;47.324;18.792;2023-08-30T02:32:31;992.53;;;19.99;73.11
54144;BME280;40050;47.324;18.792;2023-08-30T02:34:32;992.53;;;20.03;73.05
54144;BME280;40050;47.324;18.792;2023-08-30T02:36:33;992.46;;;19.98;73.02
54144;BME280;40050;47.324;18.792;2023-08-30T02:38:34;992.50;;;19.98;72.91
54144;BME280;40050;47.324;18.792;2023-08-30T02:40:35;992.48;;;19.99;72.77
54144;BME280;40050;47.324;18.792;2023-08-30T02:42:36;992.51;;;20.00;72.91
54144;BME280;40050;47.324;18.792;2023-08-30T02:44:36;992.51;;;20.02;73.01
54144;BME280;40050;47.324;18.792;2023-08-30T02:46:37;992.55;;;20.01;73.22
54144;BME280;40050;47.324;18.792;2023-08-30T02:48:38;992.57;;;20.05;73.11
54144;BME280;40050;47.324;18.792;2023-08-30T02:50:39;992.56;;;20.06;72.91
54144;BME280;40050;47.324;18.792;2023-08-30T02:52:40;992.53;;;20.03;72.91
54144;BME280;40050;47.324;18.792;2023-08-30T02:54:41;992.56;;;20.04;72.99
54144;BME280;40050;47.324;18.792;2023-08-30T02:56:42;992.51;;;20.06;73.04
54144;BME280;40050;47.324;18.792;2023-08-30T02:58:43;992.53;;;20.05;72.89
54144;BME280;40050;47.324;18.792;2023-08-30T03:00:44;992.54;;;20.11;72.75
54144;BME280;40050;47.324;18.792;2023-08-30T03:02:45;992.56;;;20.07;72.96
54144;BME280;40050;47.324;18.792;2023-08-30T03:04:46;992.35;;;19.95;73.09
54144;BME280;40050;47.324;18.792;2023-08-30T03:06:47;992.50;;;20.07;72.77
54144;BME280;40050;47.324;18.792;2023-08-30T03:08:48;992.55;;;20.02;72.76
54144;BME280;40050;47.324;18.792;2023-08-30T03:10:49;992.46;;;19.98;73.09
54144;BME280;40050;47.324;18.792;2023-08-30T03:12:50;992.53;;;20.04;73.15
54144;BME280;40050;47.324;18.792;2023-08-30T03:14:51;992.51;;;20.04;72.98
54144;BME280;40050;47.324;18.792;2023-08-30T03:16:51;992.50;;;20.07;72.69
54144;BME280;40050;47.324;18.792;2023-08-30T03:18:52;992.46;;;20.05;72.75
54144;BME280;40050;47.324;18.792;2023-08-30T03:21:00;992.45;;;20.02;73.06
54144;BME280;40050;47.324;18.792;2023-08-30T03:23:01;992.49;;;20.01;73.34
54144;BME280;40050;47.324;18.792;2023-08-30T03:25:02;992.49;;;20.01;73.01
54144;BME280;40050;47.324;18.792;2023-08-30T03:27:03;992.46;;;20.02;73.08
54144;BME280;40050;47.324;18.792;2023-08-30T03:29:04;992.48;;;19.99;72.93
54144;BME280;40050;47.324;18.792;2023-08-30T03:31:18;992.45;;;19.99;73.16
54144;BME280;40050;47.324;18.792;2023-08-30T03:33:19;992.47;;;19.99;73.33
54144;BME280;40050;47.324;18.792;2023-08-30T03:35:19;992.50;;;20.00;73.02
54144;BME280;40050;47.324;18.792;2023-08-30T03:37:20;992.58;;;19.99;72.83
54144;BME280;40050;47.324;18.792;2023-08-30T03:39:21;992.62;;;19.99;72.53
54144;BME280;40050;47.324;18.792;2023-08-30T03:41:22;992.66;;;19.94;72.43
54144;BME280;40050;47.324;18.792;2023-08-30T03:43:23;992.51;;;19.86;72.58
54144;BME280;40050;47.324;18.792;2023-08-30T03:45:24;992.59;;;19.93;72.50
54144;BME280;40050;47.324;18.792;2023-08-30T03:47:25;992.63;;;19.92;72.43
54144;BME280;40050;47.324;18.792;2023-08-30T03:49:26;992.60;;;19.90;72.31
54144;BME280;40050;47.324;18.792;2023-08-30T03:51:27;992.59;;;19.89;72.35
54144;BME280;40050;47.324;18.792;2023-08-30T03:53:28;992.58;;;19.88;72.47
54144;BME280;40050;47.324;18.792;2023-08-30T03:55:29;992.58;;;19.87;72.30
54144;BME280;40050;47.324;18.792;2023-08-30T03:57:29;992.63;;;19.90;72.11
54144;BME280;40050;47.324;18.792;2023-08-30T03:59:30;992.57;;;19.86;71.95
54144;BME280;40050;47.324;18.792;2023-08-30T04:01:31;992.57;;;19.81;72.13
54144;BME280;40050;47.324;18.792;2023-08-30T04:03:32;992.65;;;19.81;72.20
54144;BME280;40050;47.324;18.792;2023-08-30T04:05:33;992.67;;;19.79;72.25
54144;BME280;40050;47.324;18.792;2023-08-30T04:07:35;992.43;;;19.68;71.97
54144;BME280;40050;47.324;18.792;2023-08-30T04:09:36;992.69;;;19.74;71.97
54144;BME280;40050;47.324;18.792;2023-08-30T04:11:37;992.70;;;19.72;71.93
54144;BME280;40050;47.324;18.792;2023-08-30T04:13:38;992.73;;;19.70;71.77
54144;BME280;40050;47.324;18.792;2023-08-30T04:15:39;992.76;;;19.68;71.64
54144;BME280;40050;47.324;18.792;2023-08-30T04:17:39;992.83;;;19.67;71.63
54144;BME280;40050;47.324;18.792;2023-08-30T04:19:40;992.86;;;19.64;71.38
54144;BME280;40050;47.324;18.792;2023-08-30T04:21:41;992.95;;;19.61;71.69
54144;BME280;40050;47.324;18.792;2023-08-30T04:23:42;992.83;;;19.54;71.72
54144;BME280;40050;47.324;18.792;2023-08-30T04:25:44;992.97;;;19.57;71.87
54144;BME280;40050;47.324;18.792;2023-08-30T04:27:45;992.99;;;19.52;72.21
54144;BME280;40050;47.324;18.792;2023-08-30T04:29:46;993.03;;;19.56;72.03
54144;BME280;40050;47.324;18.792;2023-08-30T04:31:47;993.01;;;19.55;72.17
54144;BME280;40050;47.324;18.792;2023-08-30T04:33:48;992.99;;;19.54;72.30
54144;BME280;40050;47.324;18.792;2023-08-30T04:35:52;993.01;;;19.60;72.13
54144;BME280;40050;47.324;18.792;2023-08-30T04:37:53;993.04;;;19.53;72.47
54144;BME280;40050;47.324;18.792;2023-08-30T04:39:54;992.97;;;19.53;72.61
54144;BME280;40050;47.324;18.792;2023-08-30T04:41:55;992.95;;;19.52;72.49
54144;BME280;40050;47.324;18.792;2023-08-30T04:43:55;992.97;;;19.55;72.58
54144;BME280;40050;47.324;18.792;2023-08-30T04:45:56;992.97;;;19.56;72.28
54144;BME280;40050;47.324;18.792;2023-08-30T04:47:57;992.95;;;19.56;72.29
54144;BME280;40050;47.324;18.792;2023-08-30T04:49:58;992.99;;;19.55;72.19
54144;BME280;40050;47.324;18.792;2023-08-30T04:51:59;992.93;;;19.50;72.41
54144;BME280;40050;47.324;18.792;2023-08-30T04:54:00;992.90;;;19.50;72.62
54144;BME280;40050;47.324;18.792;2023-08-30T04:56:09;992.61;;;19.33;72.58
54144;BME280;40050;47.324;18.792;2023-08-30T04:58:10;992.91;;;19.55;72.44
54144;BME280;40050;47.324;18.792;2023-08-30T05:00:11;992.91;;;19.54;72.24
54144;BME280;40050;47.324;18.792;2023-08-30T05:02:12;992.95;;;19.53;72.15
54144;BME280;40050;47.324;18.792;2023-08-30T05:04:13;993.00;;;19.52;71.90
54144;BME280;40050;47.324;18.792;2023-08-30T05:06:14;993.02;;;19.48;71.91
54144;BME280;40050;47.324;18.792;2023-08-30T05:08:15;993.01;;;19.48;72.07
54144;BME280;40050;47.324;18.792;2023-08-30T05:10:16;993.00;;;19.50;72.33
54144;BME280;40050;47.324;18.792;2023-08-30T05:12:18;993.04;;;19.53;72.14
54144;BME280;40050;47.324;18.792;2023-08-30T05:14:19;993.09;;;19.52;72.59
54144;BME280;40050;47.324;18.792;2023-08-30T05:16:20;993.13;;;19.51;72.78
54144;BME280;40050;47.324;18.792;2023-08-30T05:18:21;993.12;;;19.52;72.90
54144;BME280;40050;47.324;18.792;2023-08-30T05:20:21;993.15;;;19.58;72.71
54144;BME280;40050;47.324;18.792;2023-08-30T05:22:22;993.15;;;19.62;72.77
54144;BME280;40050;47.324;18.792;2023-08-30T05:24:23;993.16;;;19.67;72.35
54144;BME280;40050;47.324;18.792;2023-08-30T05:26:24;993.13;;;19.66;72.10
54144;BME280;40050;47.324;18.792;2023-08-30T05:28:25;993.20;;;19.66;72.46
54144;BME280;40050;47.324;18.792;2023-08-30T05:30:42;993.24;;;19.70;72.34
54144;BME280;40050;47.324;18.792;2023-08-30T05:32:44;993.23;;;19.71;72.49
54144;BME280;40050;47.324;18.792;2023-08-30T05:34:45;993.27;;;19.75;72.37
54144;BME280;40050;47.324;18.792;2023-08-30T05:36:46;993.26;;;19.77;72.38
54144;BME280;40050;47.324;18.792;2023-08-30T05:38:46;993.29;;;19.84;71.84
54144;BME280;40050;47.324;18.792;2023-08-30T05:40:48;993.24;;;19.87;71.85
54144;BME280;40050;47.324;18.792;2023-08-30T05:42:49;993.27;;;19.89;71.13
54144;BME280;40050;47.324;18.792;2023-08-30T05:44:50;993.16;;;19.87;71.20
54144;BME280;40050;47.324;18.792;2023-08-30T05:46:51;993.24;;;19.93;70.91
54144;BME280;40050;47.324;18.792;2023-08-30T05:48:52;993.24;;;19.91;71.19
54144;BME280;40050;47.324;18.792;2023-08-30T05:50:53;993.22;;;19.95;71.09
54144;BME280;40050;47.324;18.792;2023-08-30T05:52:54;993.19;;;19.94;71.26
54144;BME280;40050;47.324;18.792;2023-08-30T05:54:55;993.11;;;19.91;70.86
54144;BME280;40050;47.324;18.792;2023-08-30T05:56:56;993.22;;;19.94;71.26
54144;BME280;40050;47.324;18.792;2023-08-30T05:58:57;993.06;;;19.88;71.06
54144;BME280;40050;47.324;18.792;2023-08-30T06:00:58;993.26;;;19.99;71.14
54144;BME280;40050;47.324;18.792;2023-08-30T06:02:59;993.30;;;19.96;71.20
54144;BME280;40050;47.324;18.792;2023-08-30T06:04:59;993.29;;;20.02;70.47
54144;BME280;40050;47.324;18.792;2023-08-30T06:07:00;993.10;;;19.84;70.70
54144;BME280;40050;47.324;18.792;2023-08-30T06:09:01;993.32;;;20.04;70.77
54144;BME280;40050;47.324;18.792;2023-08-30T06:11:02;993.31;;;20.04;70.68
54144;BME280;40050;47.324;18.792;2023-08-30T06:13:03;993.27;;;20.08;70.82
54144;BME280;40050;47.324;18.792;2023-08-30T06:15:04;993.26;;;20.09;70.32
54144;BME280;40050;47.324;18.792;2023-08-30T06:17:05;993.31;;;20.11;70.32
54144;BME280;40050;47.324;18.792;2023-08-30T06:19:07;993.30;;;20.12;70.34
54144;BME280;40050;47.324;18.792;2023-08-30T06:21:07;993.31;;;20.13;70.56
54144;BME280;40050;47.324;18.792;2023-08-30T06:23:08;993.31;;;20.12;70.44
54144;BME280;40050;47.324;18.792;2023-08-30T06:25:09;993.37;;;20.19;70.31
54144;BME280;40050;47.324;18.792;2023-08-30T06:27:10;993.36;;;20.19;70.31
54144;BME280;40050;47.324;18.792;2023-08-30T06:29:11;993.42;;;20.21;70.07
54144;BME280;40050;47.324;18.792;2023-08-30T06:31:12;993.48;;;20.25;70.41
54144;BME280;40050;47.324;18.792;2023-08-30T06:33:13;993.48;;;20.32;69.72
54144;BME280;40050;47.324;18.792;2023-08-30T06:35:14;993.51;;;20.30;69.84
54144;BME280;40050;47.324;18.792;2023-08-30T06:37:15;993.42;;;20.30;69.84
54144;BME280;40050;47.324;18.792;2023-08-30T06:39:19;993.16;;;20.18;70.05
54144;BME280;40050;47.324;18.792;2023-08-30T06:41:20;993.37;;;20.36;69.55
54144;BME280;40050;47.324;18.792;2023-08-30T06:43:21;993.46;;;20.41;69.67
54144;BME280;40050;47.324;18.792;2023-08-30T06:45:21;993.40;;;20.37;69.59
54144;BME280;40050;47.324;18.792;2023-08-30T06:47:24;993.50;;;20.45;69.26
54144;BME280;40050;47.324;18.792;2023-08-30T06:49:25;993.56;;;20.49;69.25
54144;BME280;40050;47.324;18.792;2023-08-30T06:51:26;993.56;;;20.51;69.49
54144;BME280;40050;47.324;18.792;2023-08-30T06:53:27;993.50;;;20.51;69.33
54144;BME280;40050;47.324;18.792;2023-08-30T06:55:28;993.48;;;20.55;69.19
54144;BME280;40050;47.324;18.792;2023-08-30T06:57:29;993.54;;;20.60;68.59
54144;BME280;40050;47.324;18.792;2023-08-30T06:59:30;993.59;;;20.60;68.28
54144;BME280;40050;47.324;18.792;2023-08-30T07:01:31;993.59;;;20.56;68.47
54144;BME280;40050;47.324;18.792;2023-08-30T07:03:32;993.30;;;20.41;68.81
54144;BME280;40050;47.324;18.792;2023-08-30T07:05:33;993.60;;;20.63;68.36
54144;BME280;40050;47.324;18.792;2023-08-30T07:07:34;993.38;;;20.53;68.02
54144;BME280;40050;47.324;18.792;2023-08-30T07:17:06;993.56;;;20.81;68.18
54144;BME280;40050;47.324;18.792;2023-08-30T07:19:07;993.52;;;20.88;67.70
54144;BME280;40050;47.324;18.792;2023-08-30T07:21:08;993.53;;;20.88;67.61
54144;BME280;40050;47.324;18.792;2023-08-30T07:23:09;993.52;;;20.89;68.15
54144;BME280;40050;47.324;18.792;2023-08-30T07:25:10;993.62;;;20.95;67.76
54144;BME280;40050;47.324;18.792;2023-08-30T07:27:11;993.71;;;20.95;67.81
54144;BME280;40050;47.324;18.792;2023-08-30T07:29:12;993.76;;;20.97;67.56
54144;BME280;40050;47.324;18.792;2023-08-30T07:31:13;993.71;;;20.97;67.75
54144;BME280;40050;47.324;18.792;2023-08-30T07:33:14;993.72;;;21.01;67.41
54144;BME280;40050;47.324;18.792;2023-08-30T07:35:15;993.57;;;20.98;67.55
54144;BME280;40050;47.324;18.792;2023-08-30T07:37:19;993.72;;;21.09;67.51
54144;BME280;40050;47.324;18.792;2023-08-30T07:39:20;993.68;;;21.13;67.25
54144;BME280;40050;47.324;18.792;2023-08-30T07:41:21;993.74;;;21.17;66.25
54144;BME280;40050;47.324;18.792;2023-08-30T07:43:22;993.71;;;21.14;66.63
54144;BME280;40050;47.324;18.792;2023-08-30T07:45:23;993.76;;;21.20;66.83
54144;BME280;40050;47.324;18.792;2023-08-30T07:47:24;993.73;;;21.23;66.43
54144;BME280;40050;47.324;18.792;2023-08-30T07:49:25;993.80;;;21.24;66.50
54144;BME280;40050;47.324;18.792;2023-08-30T07:51:26;993.84;;;21.31;66.96
54144;BME280;40050;47.324;18.792;2023-08-30T07:53:27;993.89;;;21.37;66.61
54144;BME280;40050;47.324;18.792;2023-08-30T07:55:28;993.89;;;21.36;65.85
54144;BME280;40050;47.324;18.792;2023-08-30T07:57:29;993.94;;;21.35;66.08
54144;BME280;40050;47.324;18.792;2023-08-30T07:59:32;993.92;;;21.36;66.72
54144;BME280;40050;47.324;18.792;2023-08-30T08:01:33;993.93;;;21.39;66.55
54144;BME280;40050;47.324;18.792;2023-08-30T08:03:34;993.97;;;21.42;66.13
54144;BME280;40050;47.324;18.792;2023-08-30T08:05:35;994.06;;;21.46;66.43
54144;BME280;40050;47.324;18.792;2023-08-30T08:07:39;994.11;;;21.53;66.25
54144;BME280;40050;47.324;18.792;2023-08-30T08:09:40;994.11;;;21.58;66.13
54144;BME280;40050;47.324;18.792;2023-08-30T08:11:41;994.05;;;21.57;65.00
54144;BME280;40050;47.324;18.792;2023-08-30T08:13:42;994.07;;;21.50;65.24
54144;BME280;40050;47.324;18.792;2023-08-30T08:15:43;994.02;;;21.50;65.55
54144;BME280;40050;47.324;18.792;2023-08-30T08:17:43;994.07;;;21.53;65.84
54144;BME280;40050;47.324;18.792;2023-08-30T08:19:44;994.04;;;21.57;65.93
54144;BME280;40050;47.324;18.792;2023-08-30T08:21:45;994.07;;;21.60;66.18
54144;BME280;40050;47.324;18.792;2023-08-30T08:23:46;994.04;;;21.66;66.07
54144;BME280;40050;47.324;18.792;2023-08-30T08:25:47;993.99;;;21.73;65.67
54144;BME280;40050;47.324;18.792;2023-08-30T08:27:48;993.88;;;21.69;65.55
54144;BME280;40050;47.324;18.792;2023-08-30T08:29:50;993.96;;;21.78;65.11
54144;BME280;40050;47.324;18.792;2023-08-30T08:31:50;994.01;;;21.79;65.21
54144;BME280;40050;47.324;18.792;2023-08-30T08:33:52;993.94;;;21.84;64.96
54144;BME280;40050;47.324;18.792;2023-08-30T08:36:04;993.95;;;21.82;64.79
54144;BME280;40050;47.324;18.792;2023-08-30T08:38:05;993.99;;;21.79;64.60
54144;BME280;40050;47.324;18.792;2023-08-30T08:40:06;994.00;;;21.84;64.49
54144;BME280;40050;47.324;18.792;2023-08-30T08:42:07;994.05;;;21.87;64.66
54144;BME280;40050;47.324;18.792;2023-08-30T08:44:09;994.05;;;21.88;64.53
54144;BME280;40050;47.324;18.792;2023-08-30T08:46:10;994.11;;;21.93;64.75
54144;BME280;40050;47.324;18.792;2023-08-30T08:50:39;994.09;;;22.02;64.52
54144;BME280;40050;47.324;18.792;2023-08-30T08:57:48;994.14;;;22.23;63.54
54144;BME280;40050;47.324;18.792;2023-08-30T08:59:49;994.16;;;22.22;64.26
54144;BME280;40050;47.324;18.792;2023-08-30T09:01:50;994.16;;;22.26;63.99
54144;BME280;40050;47.324;18.792;2023-08-30T09:04:15;994.19;;;22.31;63.59
54144;BME280;40050;47.324;18.792;2023-08-30T09:06:21;994.24;;;22.33;63.18
54144;BME280;40050;47.324;18.792;2023-08-30T09:12:34;994.28;;;22.31;63.94
54144;BME280;40050;47.324;18.792;2023-08-30T09:14:36;994.20;;;22.32;63.71
54144;BME280;40050;47.324;18.792;2023-08-30T09:16:37;994.28;;;22.34;63.29
54144;BME280;40050;47.324;18.792;2023-08-30T09:18:38;994.24;;;22.36;62.97
54144;BME280;40050;47.324;18.792;2023-08-30T09:20:42;994.23;;;22.41;63.02
54144;BME280;40050;47.324;18.792;2023-08-30T09:25:08;994.09;;;22.34;62.54
54144;BME280;40050;47.324;18.792;2023-08-30T09:37:49;994.53;;;22.53;62.64
54144;BME280;40050;47.324;18.792;2023-08-30T09:42:00;994.60;;;22.63;62.02
54144;BME280;40050;47.324;18.792;2023-08-30T09:44:14;994.58;;;22.59;62.50
54144;BME280;40050;47.324;18.792;2023-08-30T09:46:15;994.57;;;22.58;62.84
54144;BME280;40050;47.324;18.792;2023-08-30T09:52:24;994.52;;;22.56;63.18
54144;BME280;40050;47.324;18.792;2023-08-30T09:54:27;994.52;;;22.62;63.05
54144;BME280;40050;47.324;18.792;2023-08-30T09:56:50;994.56;;;22.65;63.29
54144;BME280;40050;47.324;18.792;2023-08-30T09:59:03;994.55;;;22.69;63.03
54144;BME280;40050;47.324;18.792;2023-08-30T10:01:04;994.60;;;22.80;62.50
54144;BME280;40050;47.324;18.792;2023-08-30T10:03:05;994.58;;;22.85;62.52
54144;BME280;40050;47.324;18.792;2023-08-30T10:05:07;994.59;;;22.93;62.30
54144;BME280;40050;47.324;18.792;2023-08-30T10:07:09;994.59;;;22.99;61.81
54144;BME280;40050;47.324;18.792;2023-08-30T10:09:10;994.59;;;22.99;62.09
54144;BME280;40050;47.324;18.792;2023-08-30T10:11:11;994.50;;;22.98;61.39
54144;BME280;40050;47.324;18.792;2023-08-30T10:13:12;994.62;;;23.04;61.67
54144;BME280;40050;47.324;18.792;2023-08-30T10:15:14;994.60;;;23.09;61.59
54144;BME280;40050;47.324;18.792;2023-08-30T10:17:15;994.49;;;23.18;62.07
54144;BME280;40050;47.324;18.792;2023-08-30T10:23:28;994.41;;;23.25;60.96
54144;BME280;40050;47.324;18.792;2023-08-30T10:25:33;994.46;;;23.33;61.23
54144;BME280;40050;47.324;18.792;2023-08-30T10:27:34;994.43;;;23.41;61.24
54144;BME280;40050;47.324;18.792;2023-08-30T10:29:37;994.40;;;23.48;60.81
54144;BME280;40050;47.324;18.792;2023-08-30T10:31:39;994.44;;;23.52;60.91
54144;BME280;40050;47.324;18.792;2023-08-30T10:33:49;994.48;;;23.57;60.29
54144;BME280;40050;47.324;18.792;2023-08-30T10:35:51;994.49;;;23.66;59.94
54144;BME280;40050;47.324;18.792;2023-08-30T10:37:55;994.46;;;23.71;60.28
54144;BME280;40050;47.324;18.792;2023-08-30T10:39:59;994.51;;;23.80;59.68
54144;BME280;40050;47.324;18.792;2023-08-30T10:42:01;994.49;;;23.90;59.58
54144;BME280;40050;47.324;18.792;2023-08-30T10:44:13;994.45;;;24.01;59.00
54144;BME280;40050;47.324;18.792;2023-08-30T10:46:14;994.48;;;24.08;58.88
54144;BME280;40050;47.324;18.792;2023-08-30T10:48:15;994.49;;;24.11;59.09
54144;BME280;40050;47.324;18.792;2023-08-30T10:50:17;994.42;;;24.20;58.26
54144;BME280;40050;47.324;18.792;2023-08-30T10:52:18;994.43;;;24.24;57.66
54144;BME280;40050;47.324;18.792;2023-08-30T10:54:19;994.38;;;24.26;57.03
54144;BME280;40050;47.324;18.792;2023-08-30T10:56:19;994.38;;;24.33;58.16
54144;BME280;40050;47.324;18.792;2023-08-30T10:58:27;994.40;;;24.42;57.84
54144;BME280;40050;47.324;18.792;2023-08-30T11:00:39;994.38;;;24.48;57.69
54144;BME280;40050;47.324;18.792;2023-08-30T11:02:43;994.37;;;24.50;57.60
54144;BME280;40050;47.324;18.792;2023-08-30T11:04:44;994.34;;;24.48;56.25
54144;BME280;40050;47.324;18.792;2023-08-30T11:06:45;994.34;;;24.51;57.31
54144;BME280;40050;47.324;18.792;2023-08-30T11:08:47;994.39;;;24.56;57.22
54144;BME280;40050;47.324;18.792;2023-08-30T11:10:48;994.32;;;24.60;56.98
54144;BME280;40050;47.324;18.792;2023-08-30T11:12:49;994.40;;;24.73;57.02
54144;BME280;40050;47.324;18.792;2023-08-30T11:14:56;994.39;;;24.79;56.48
54144;BME280;40050;47.324;18.792;2023-08-30T11:16:57;994.30;;;24.82;56.97
54144;BME280;40050;47.324;18.792;2023-08-30T11:18:58;994.34;;;24.91;56.59
54144;BME280;40050;47.324;18.792;2023-08-30T11:21:00;994.32;;;24.98;56.94
54144;BME280;40050;47.324;18.792;2023-08-30T11:23:02;994.32;;;25.06;56.52
54144;BME280;40050;47.324;18.792;2023-08-30T11:25:03;994.24;;;25.11;56.31
54144;BME280;40050;47.324;18.792;2023-08-30T11:27:04;994.19;;;25.07;56.94
54144;BME280;40050;47.324;18.792;2023-08-30T11:29:06;994.27;;;25.20;56.59
54144;BME280;40050;47.324;18.792;2023-08-30T11:31:07;994.33;;;25.20;55.79
54144;BME280;40050;47.324;18.792;2023-08-30T11:33:08;994.33;;;25.22;56.10
54144;BME280;40050;47.324;18.792;2023-08-30T11:35:09;994.33;;;25.27;56.04
54144;BME280;40050;47.324;18.792;2023-08-30T11:37:10;994.34;;;25.39;55.87